createdAt,value
2018-05-10T04:02:37.975Z,12.00
2018-05-10T04:05:16.027Z,11.60
2018-05-10T04:07:54.194Z,12.00
2018-05-10T04:10:32.415Z,11.50
2018-05-10T04:12:58.206Z,11.97
2018-05-10T04:15:23.977Z,11.57
2018-05-10T04:17:49.979Z,12.47
2018-05-10T04:20:15.753Z,10.83
2018-05-10T04:22:41.521Z,12.13
2018-05-10T04:25:07.315Z,13.30
2018-05-10T04:27:33.082Z,12.13
2018-05-10T04:29:58.853Z,12.20
2018-05-10T04:32:24.625Z,12.80
2018-05-10T04:34:50.405Z,12.40
2018-05-10T04:37:16.162Z,11.97
2018-05-10T04:39:41.937Z,11.50
2018-05-10T04:42:07.718Z,11.67
2018-05-10T04:44:33.535Z,13.17
2018-05-10T04:46:59.297Z,11.77
2018-05-10T04:49:25.586Z,12.03
2018-05-10T04:51:51.364Z,12.03
2018-05-10T04:54:17.126Z,11.77
2018-05-10T04:56:42.900Z,10.70
2018-05-10T04:59:08.677Z,11.33
2018-05-10T05:01:34.456Z,13.10
2018-05-10T05:04:00.246Z,12.67
2018-05-10T05:06:26.024Z,12.53
2018-05-10T05:08:51.891Z,11.13
2018-05-10T05:11:17.582Z,11.40
2018-05-10T05:13:43.368Z,12.40
2018-05-10T05:16:09.147Z,11.97
2018-05-10T05:18:34.909Z,11.63
2018-05-10T05:21:00.684Z,11.47
2018-05-10T05:23:26.488Z,11.73
2018-05-10T05:25:52.273Z,12.37
2018-05-10T05:28:18.040Z,13.20
2018-05-10T05:30:43.825Z,11.80
2018-05-10T05:33:09.606Z,12.17
2018-05-10T05:35:35.417Z,11.63
2018-05-10T05:38:01.174Z,12.07
2018-05-10T05:40:26.945Z,13.03
2018-05-10T05:42:52.750Z,10.13
2018-05-10T05:45:18.517Z,11.10
2018-05-10T05:47:44.291Z,12.57
2018-05-10T05:50:10.070Z,12.23
2018-05-10T05:52:35.857Z,11.87
2018-05-10T05:55:01.713Z,12.00
2018-05-10T05:57:27.429Z,11.60
2018-05-10T05:59:53.213Z,11.90
2018-05-10T06:02:19.006Z,11.33
2018-05-10T06:04:44.790Z,11.70
2018-05-10T06:07:10.565Z,10.93
2018-05-10T06:09:36.348Z,12.27
2018-05-10T06:12:02.135Z,13.63
2018-05-10T06:14:27.929Z,12.03
2018-05-10T06:16:53.711Z,12.00
2018-05-10T06:19:19.492Z,11.87
2018-05-10T06:21:45.259Z,12.23
2018-05-10T06:24:11.034Z,12.13
2018-05-10T06:26:36.822Z,12.17
2018-05-10T06:29:02.603Z,13.07
2018-05-10T06:31:28.367Z,12.30
2018-05-10T06:33:54.245Z,12.00
2018-05-10T06:36:19.937Z,11.50
2018-05-10T06:38:45.719Z,11.03
2018-05-10T06:41:11.503Z,12.03
2018-05-10T06:43:37.284Z,11.20
2018-05-10T06:46:03.055Z,10.63
2018-05-10T06:48:28.850Z,11.90
2018-05-10T06:50:54.631Z,9.50
2018-05-10T06:53:20.430Z,11.00
2018-05-10T06:55:46.226Z,9.40
2018-05-10T06:58:12.010Z,9.80
2018-05-10T07:00:37.798Z,9.20
2018-05-10T07:03:03.565Z,9.40
2018-05-10T07:05:29.337Z,9.33
2018-05-10T07:07:55.142Z,8.50
2018-05-10T07:10:20.918Z,8.80
2018-05-10T07:12:46.688Z,8.70
2018-05-10T07:15:12.452Z,9.83
2018-05-10T07:17:38.296Z,9.67
2018-05-10T07:20:04.690Z,8.70
2018-05-10T07:22:30.473Z,9.37
2018-05-10T07:24:56.259Z,8.53
2018-05-10T07:27:22.050Z,10.37
2018-05-10T07:29:47.837Z,9.80
2018-05-10T07:32:13.618Z,9.60
2018-05-10T07:34:39.418Z,10.07
2018-05-10T07:37:05.263Z,9.50
2018-05-10T07:39:31.038Z,10.07
2018-05-10T07:41:56.899Z,10.03
2018-05-10T07:44:22.618Z,10.70
2018-05-10T07:46:48.407Z,8.60
2018-05-10T07:49:14.319Z,8.93
2018-05-10T07:51:42.259Z,9.07
2018-05-10T07:54:08.128Z,8.83
2018-05-10T07:56:33.979Z,9.50
2018-05-10T07:58:59.805Z,9.20
2018-05-10T08:01:25.653Z,7.80
2018-05-10T08:03:51.689Z,9.47
2018-05-10T08:06:17.890Z,9.00
2018-05-10T08:08:43.768Z,9.33
2018-05-10T08:11:09.574Z,8.00
2018-05-10T08:13:35.406Z,9.10
2018-05-10T08:16:01.281Z,8.40
2018-05-10T08:18:27.122Z,9.27
2018-05-10T08:20:52.954Z,8.80
2018-05-10T08:23:18.738Z,8.80
2018-05-10T08:25:44.517Z,8.10
2018-05-10T08:28:10.315Z,7.90
2018-05-10T08:30:36.205Z,8.10
2018-05-10T08:33:01.991Z,9.17
2018-05-10T08:35:27.825Z,8.67
2018-05-10T08:37:54.251Z,8.30
2018-05-10T08:40:20.146Z,7.40
2018-05-10T08:42:46.219Z,7.50
2018-05-10T08:45:12.104Z,7.17
2018-05-10T08:47:37.886Z,7.87
2018-05-10T08:50:03.695Z,6.80
2018-05-10T08:52:29.542Z,6.40
2018-05-10T08:54:55.558Z,7.00
2018-05-10T08:57:21.470Z,7.20
2018-05-10T08:59:47.413Z,6.73
2018-05-10T09:02:13.264Z,7.50
2018-05-10T09:04:39.121Z,6.50
2018-05-10T09:07:05.122Z,6.63
2018-05-10T09:09:31.029Z,7.00
2018-05-10T09:11:56.826Z,6.07
2018-05-10T09:14:22.602Z,6.43
2018-05-10T09:16:48.390Z,6.70
2018-05-10T09:19:14.179Z,6.17
2018-05-10T09:21:39.949Z,6.50
2018-05-10T09:24:05.719Z,6.30
2018-05-10T09:26:31.494Z,6.17
2018-05-10T09:28:57.274Z,6.03
2018-05-10T09:31:23.099Z,5.50
2018-05-10T09:33:48.976Z,5.53
2018-05-10T09:36:14.675Z,4.97
2018-05-10T09:38:40.477Z,6.00
2018-05-10T09:41:06.241Z,6.67
2018-05-10T09:43:32.013Z,5.70
2018-05-10T09:45:57.789Z,6.10
2018-05-10T09:48:23.606Z,5.33
2018-05-10T09:50:49.382Z,5.43
2018-05-10T09:53:15.158Z,5.10
2018-05-10T09:55:40.947Z,5.40
2018-05-10T09:58:06.793Z,5.20
2018-05-10T10:00:32.583Z,5.33
2018-05-10T10:02:58.378Z,5.90
2018-05-10T10:05:24.150Z,5.17
2018-05-10T10:07:49.947Z,6.07
2018-05-10T10:10:15.743Z,5.40
2018-05-10T10:12:41.533Z,6.07
2018-05-10T10:15:07.357Z,5.20
2018-05-10T10:17:33.219Z,5.40
2018-05-10T10:19:58.924Z,5.60
2018-05-10T10:22:24.707Z,4.97
2018-05-10T10:24:50.477Z,5.87
2018-05-10T10:27:16.289Z,4.70
2018-05-10T10:29:42.072Z,5.17
2018-05-10T10:32:07.886Z,4.80
2018-05-10T10:34:33.728Z,5.23
2018-05-10T10:36:59.538Z,5.63
2018-05-10T10:39:25.348Z,5.77
2018-05-10T10:41:51.151Z,6.13
2018-05-10T10:44:16.922Z,5.33
2018-05-10T10:46:42.710Z,4.70
2018-05-10T10:49:08.487Z,4.60
2018-05-10T10:51:34.283Z,5.33
2018-05-10T10:54:00.143Z,4.90
2018-05-10T10:56:25.838Z,6.33
2018-05-10T10:58:51.689Z,4.80
2018-05-10T11:01:17.511Z,5.90
2018-05-10T11:03:43.286Z,4.40
2018-05-10T11:06:09.071Z,4.90
2018-05-10T11:08:34.846Z,4.30
2018-05-10T11:11:00.632Z,4.10
2018-05-10T11:13:27.689Z,4.33
2018-05-10T11:15:53.477Z,5.07
2018-05-10T11:18:19.326Z,4.90
2018-05-10T11:20:45.109Z,4.47
2018-05-10T11:23:10.870Z,4.47
2018-05-10T11:25:36.641Z,4.50
2018-05-10T11:28:02.438Z,4.47
2018-05-10T11:30:28.230Z,5.20
2018-05-10T11:32:54.032Z,4.97
2018-05-10T11:35:19.799Z,5.10
2018-05-10T11:37:45.618Z,4.67
2018-05-10T11:40:11.388Z,5.40
2018-05-10T11:42:37.191Z,4.53
2018-05-10T11:45:02.965Z,4.97
2018-05-10T11:47:28.753Z,7.30
2018-05-10T11:49:54.550Z,5.87
2018-05-10T11:52:20.325Z,5.53
2018-05-10T11:54:46.121Z,8.30
2018-05-10T11:57:11.892Z,7.50
2018-05-10T11:59:37.683Z,7.10
2018-05-10T12:02:03.476Z,6.87
2018-05-10T12:04:29.258Z,7.33
2018-05-10T12:06:55.030Z,6.90
2018-05-10T12:09:20.815Z,6.30
2018-05-10T12:11:46.575Z,8.67
2018-05-10T12:14:12.377Z,10.63
2018-05-10T12:16:39.876Z,9.47
2018-05-10T12:19:05.695Z,9.67
2018-05-10T12:21:31.447Z,10.00
2018-05-10T12:23:57.225Z,10.37
2018-05-10T12:26:23.885Z,11.00
2018-05-10T12:28:49.645Z,9.67
2018-05-10T12:31:17.528Z,9.93
2018-05-10T12:33:45.006Z,9.90
2018-05-10T12:36:10.829Z,8.70
2018-05-10T12:38:36.582Z,10.33
2018-05-10T12:41:02.359Z,8.83
2018-05-10T12:43:28.126Z,10.00
2018-05-10T12:45:53.898Z,8.77
2018-05-10T12:48:20.573Z,10.10
2018-05-10T12:50:46.346Z,10.57
2018-05-10T12:53:12.121Z,9.70
2018-05-10T12:55:37.906Z,10.27
2018-05-10T12:58:03.678Z,10.50
2018-05-10T13:00:29.454Z,8.50
2018-05-10T13:02:55.324Z,7.80
2018-05-10T13:05:21.041Z,6.13
2018-05-10T13:07:46.834Z,6.03
2018-05-10T13:10:12.622Z,5.40
2018-05-10T13:12:38.411Z,5.30
2018-05-10T13:15:04.178Z,5.07
2018-05-10T13:17:29.961Z,6.73
2018-05-10T13:19:55.786Z,6.83
2018-05-10T13:22:22.133Z,6.00
2018-05-10T13:24:48.237Z,6.63
2018-05-10T13:27:14.289Z,6.67
2018-05-10T13:29:40.045Z,6.03
2018-05-10T13:32:07.003Z,5.77
2018-05-10T13:34:39.787Z,6.50
2018-05-10T13:37:05.569Z,5.40
2018-05-10T13:39:31.368Z,5.40
2018-05-10T13:41:57.143Z,4.13
2018-05-10T13:44:22.913Z,4.23
2018-05-10T13:46:51.050Z,4.30
2018-05-10T13:49:16.809Z,4.47
2018-05-10T13:51:42.565Z,4.60
2018-05-10T13:54:08.330Z,4.43
2018-05-10T13:56:34.111Z,4.90
2018-05-10T13:58:59.915Z,4.40
2018-05-10T14:01:25.650Z,4.33
2018-05-10T14:03:51.470Z,4.00
2018-05-10T14:06:17.244Z,4.20
2018-05-10T14:08:43.038Z,3.70
2018-05-10T14:11:08.907Z,3.87
2018-05-10T14:13:34.610Z,3.80
2018-05-10T14:16:00.368Z,3.30
2018-05-10T14:18:26.134Z,3.67
2018-05-10T14:20:51.894Z,3.60
2018-05-10T14:23:17.661Z,3.37
2018-05-10T14:25:43.429Z,3.77
2018-05-10T14:28:09.205Z,2.97
2018-05-10T14:30:34.992Z,4.13
2018-05-10T14:33:00.769Z,3.17
2018-05-10T14:35:26.569Z,4.27
2018-05-10T14:37:52.334Z,3.80
2018-05-10T14:40:18.622Z,3.27
2018-05-10T14:42:44.446Z,3.30
2018-05-10T14:45:10.222Z,2.90
2018-05-10T14:47:35.988Z,3.47
2018-05-10T14:50:01.788Z,3.30
2018-05-10T14:52:27.541Z,3.40
2018-05-10T14:54:53.338Z,3.30
2018-05-10T14:57:19.382Z,3.53
2018-05-10T14:59:45.369Z,3.23
2018-05-10T15:02:11.090Z,3.27
2018-05-10T15:04:36.841Z,3.17
2018-05-10T15:07:02.619Z,3.33
2018-05-10T15:09:28.389Z,3.90
2018-05-10T15:11:54.193Z,3.37
2018-05-10T15:14:19.955Z,3.37
2018-05-10T15:16:45.718Z,2.73
2018-05-10T15:19:11.494Z,3.60
2018-05-10T15:21:37.278Z,3.40
2018-05-10T15:24:03.066Z,4.13
2018-05-10T15:26:28.913Z,3.90
2018-05-10T15:28:54.645Z,3.53
2018-05-10T15:31:20.436Z,3.77
2018-05-10T15:33:46.219Z,3.30
2018-05-10T15:36:12.010Z,3.80
2018-05-10T15:38:37.794Z,4.63
2018-05-10T15:41:03.571Z,4.33
2018-05-10T15:43:29.350Z,4.80
2018-05-10T15:45:55.118Z,4.27
2018-05-10T15:48:20.929Z,4.07
2018-05-10T15:50:46.694Z,3.97
2018-05-10T15:53:12.467Z,4.57
2018-05-10T15:55:38.230Z,4.40
2018-05-10T15:58:04.034Z,4.40
2018-05-10T16:00:29.815Z,4.00
2018-05-10T16:02:55.598Z,4.10
2018-05-10T16:05:21.366Z,5.03
2018-05-10T16:07:47.132Z,4.80
2018-05-10T16:10:12.909Z,4.90
2018-05-10T16:12:38.690Z,4.50
2018-05-10T16:15:04.471Z,4.00
2018-05-10T16:17:30.261Z,4.37
2018-05-10T16:19:56.087Z,4.10
2018-05-10T16:22:21.834Z,3.67
2018-05-10T16:24:47.621Z,3.93
2018-05-10T16:27:13.396Z,3.80
2018-05-10T16:29:39.177Z,3.27
2018-05-10T16:32:04.965Z,3.50
2018-05-10T16:34:30.778Z,4.00
2018-05-10T16:36:56.613Z,3.80
2018-05-10T16:39:22.431Z,4.10
2018-05-10T16:41:48.198Z,4.00
2018-05-10T16:44:13.975Z,4.70
2018-05-10T16:46:39.789Z,4.00
2018-05-10T16:49:05.578Z,3.67
2018-05-10T16:51:31.356Z,4.10
2018-05-10T16:53:57.138Z,4.37
2018-05-10T16:56:22.914Z,3.87
2018-05-10T16:58:48.705Z,4.53
2018-05-10T17:01:14.533Z,4.30
2018-05-10T17:03:40.306Z,4.00
2018-05-10T17:06:06.110Z,4.70
2018-05-10T17:08:31.904Z,4.60
2018-05-10T17:10:57.668Z,4.57
2018-05-10T17:13:23.484Z,4.20
2018-05-10T17:15:49.267Z,4.37
2018-05-10T17:18:15.062Z,5.13
2018-05-10T17:20:40.842Z,4.20
2018-05-10T17:23:06.615Z,4.60
2018-05-10T17:25:32.406Z,4.80
2018-05-10T17:27:58.174Z,5.30
2018-05-10T17:30:23.974Z,5.47
2018-05-10T17:32:49.737Z,4.90
2018-05-10T17:35:15.510Z,5.80
2018-05-10T17:37:41.286Z,4.80
2018-05-10T17:40:07.080Z,6.40
2018-05-10T17:42:32.870Z,6.17
2018-05-10T17:44:58.638Z,6.43
2018-05-10T17:47:24.469Z,6.33
2018-05-10T17:49:50.261Z,7.03
2018-05-10T17:52:16.041Z,6.90
2018-05-10T17:54:41.820Z,7.10
2018-05-10T17:57:07.638Z,6.70
2018-05-10T17:59:33.410Z,6.60
2018-05-10T18:01:59.194Z,8.00
2018-05-10T18:04:24.962Z,8.00
2018-05-10T18:06:50.745Z,7.90
2018-05-10T18:09:16.510Z,8.20
2018-05-10T18:11:42.295Z,6.93
2018-05-10T18:14:08.062Z,9.13
2018-05-10T18:16:33.825Z,9.10
2018-05-10T18:18:59.664Z,9.53
2018-05-10T18:21:25.458Z,10.00
2018-05-10T18:23:51.230Z,10.87
2018-05-10T18:26:17.013Z,10.77
2018-05-10T18:28:42.793Z,11.80
2018-05-10T18:31:08.569Z,12.33
2018-05-10T18:33:34.346Z,11.90
2018-05-10T18:36:00.136Z,12.63
2018-05-10T18:38:25.914Z,12.60
2018-05-10T18:40:51.756Z,12.80
2018-05-10T18:43:17.503Z,13.00
2018-05-10T18:45:43.286Z,13.67
2018-05-10T18:48:09.065Z,12.73
2018-05-10T18:50:34.821Z,12.57
2018-05-10T18:53:00.590Z,10.00
2018-05-10T18:55:26.387Z,10.50
2018-05-10T18:57:52.179Z,11.43
2018-05-10T19:00:17.949Z,9.60
2018-05-10T19:02:43.737Z,8.80
2018-05-10T19:05:09.526Z,8.60
2018-05-10T19:07:35.289Z,9.70
2018-05-10T19:10:01.070Z,9.33
2018-05-10T19:12:26.941Z,9.13
2018-05-10T19:14:52.722Z,8.10
2018-05-10T19:17:18.491Z,9.20
2018-05-10T19:19:44.282Z,8.50
2018-05-10T19:22:10.057Z,8.07
2018-05-10T19:24:35.852Z,8.23
2018-05-10T19:27:01.638Z,8.87
2018-05-10T19:29:28.891Z,8.57
2018-05-10T19:31:54.767Z,9.17
2018-05-10T19:34:20.494Z,9.30
2018-05-10T19:36:46.287Z,8.40
2018-05-10T19:39:12.213Z,9.00
2018-05-10T19:41:38.002Z,9.37
2018-05-10T19:44:03.783Z,9.43
2018-05-10T19:46:29.595Z,10.87
2018-05-10T19:48:55.449Z,11.60
2018-05-10T19:51:21.318Z,15.63
2018-05-10T19:53:47.057Z,14.30
2018-05-10T19:56:12.880Z,16.07
2018-05-10T19:58:38.674Z,17.40
2018-05-10T20:01:04.481Z,16.43
2018-05-10T20:16:28.918Z,21.20
2018-05-10T20:18:54.694Z,20.77
2018-05-10T20:21:20.483Z,18.80
2018-05-10T20:23:46.242Z,16.53
2018-05-10T20:26:12.033Z,15.40
2018-05-10T20:28:37.893Z,15.10
2018-05-10T20:31:03.671Z,13.80
2018-05-10T20:33:29.592Z,13.23
2018-05-10T20:35:55.999Z,12.73
2018-05-10T20:38:21.824Z,12.70
2018-05-10T20:40:47.667Z,11.20
2018-05-10T20:43:13.806Z,12.23
2018-05-10T20:45:39.699Z,11.37
2018-05-10T20:48:05.514Z,12.80
2018-05-10T20:50:31.341Z,11.60
2018-05-10T20:52:57.090Z,11.17
2018-05-10T20:55:22.907Z,10.57
2018-05-10T20:57:48.691Z,11.07
2018-05-10T21:00:14.482Z,12.33
2018-05-10T21:02:40.280Z,10.53
2018-05-10T21:05:06.171Z,11.40
2018-05-10T21:07:31.918Z,10.30
2018-05-10T21:09:57.774Z,11.90
2018-05-10T21:12:44.409Z,11.30
2018-05-10T21:15:10.194Z,12.20
2018-05-10T21:17:35.973Z,11.37
2018-05-10T21:20:01.757Z,12.23
2018-05-10T21:22:27.688Z,12.20
2018-05-10T21:24:53.469Z,12.00
2018-05-10T21:27:19.258Z,11.60
2018-05-10T21:29:45.045Z,11.80
2018-05-10T21:32:10.830Z,12.97
2018-05-10T21:34:36.620Z,12.83
2018-05-10T21:37:02.403Z,12.97
2018-05-10T21:39:28.185Z,12.90
2018-05-10T21:41:53.957Z,13.07
2018-05-10T21:44:19.755Z,13.43
2018-05-10T21:46:45.516Z,13.37
2018-05-10T21:49:23.840Z,12.67
2018-05-10T21:51:51.652Z,14.10
2018-05-10T21:54:17.499Z,13.67
2018-05-10T21:56:43.287Z,13.70
2018-05-10T21:59:09.085Z,14.13
2018-05-10T22:01:34.966Z,15.23
2018-05-10T22:04:00.752Z,15.03
2018-05-10T22:06:26.538Z,16.70
2018-05-10T22:08:52.417Z,15.30
2018-05-10T22:11:18.138Z,13.63
2018-05-10T22:13:43.894Z,16.40
2018-05-10T22:16:09.715Z,16.17
2018-05-10T22:18:35.500Z,16.93
2018-05-10T22:21:01.275Z,16.80
2018-05-10T22:23:27.058Z,16.10
2018-05-10T22:25:52.821Z,17.30
2018-05-10T22:28:18.630Z,16.87
2018-05-10T22:30:44.431Z,17.43
2018-05-10T22:33:10.217Z,17.60
2018-05-10T22:35:36.023Z,20.13
2018-05-10T22:38:01.807Z,20.43
2018-05-10T22:40:27.613Z,18.67
2018-05-10T22:42:54.114Z,18.40
2018-05-10T22:45:20.994Z,17.70
2018-05-10T22:47:46.875Z,19.00
2018-05-10T22:50:12.894Z,19.20
2018-05-10T22:52:38.734Z,18.90
2018-05-10T22:55:04.519Z,19.53
2018-05-10T22:57:30.302Z,20.40
2018-05-10T22:59:56.089Z,20.03
2018-05-10T23:02:21.866Z,20.30
2018-05-10T23:04:47.657Z,20.27
2018-05-10T23:07:13.422Z,19.63
2018-05-10T23:09:39.262Z,18.93
2018-05-10T23:12:05.034Z,20.90
2018-05-10T23:14:30.782Z,21.83
2018-05-10T23:16:56.586Z,20.73
2018-05-10T23:19:22.345Z,19.70
2018-05-10T23:21:48.125Z,19.60
2018-05-10T23:24:13.890Z,18.87
2018-05-10T23:26:39.667Z,21.10
2018-05-10T23:29:05.446Z,19.80
2018-05-10T23:31:31.225Z,20.60
2018-05-10T23:33:57.002Z,20.60
2018-05-10T23:36:22.781Z,22.23
2018-05-10T23:38:48.558Z,20.20
2018-05-10T23:41:14.339Z,21.47
2018-05-10T23:43:40.109Z,20.87
2018-05-10T23:46:05.877Z,20.53
2018-05-10T23:48:31.669Z,19.50
2018-05-10T23:50:57.440Z,18.70
2018-05-10T23:53:23.224Z,20.23
2018-05-10T23:55:48.993Z,20.47
2018-05-10T23:58:14.778Z,20.80
